createdAt,value
2019-02-26T05:37:14.099Z,3
2019-02-26T05:43:14.462Z,7
2019-02-26T05:46:15.870Z,10
2019-02-26T05:48:15.962Z,13
2019-02-26T05:49:45.775Z,17
2019-02-26T05:50:44.925Z,20
2019-02-26T05:51:44.934Z,23
2019-02-26T05:52:45.021Z,27
2019-02-26T05:53:14.996Z,30
2019-02-26T05:53:45.053Z,33
2019-02-26T05:54:17.904Z,37
2019-02-26T05:54:45.110Z,40
2019-02-26T05:55:17.472Z,43
2019-02-26T05:55:48.430Z,47
2019-02-26T05:56:17.127Z,50
2019-02-26T05:56:46.759Z,53
2019-02-26T05:57:25.854Z,60
2019-02-26T05:57:45.486Z,63
2019-02-26T05:58:16.208Z,70
2019-02-26T05:58:46.936Z,77
2019-02-26T05:59:15.886Z,83
2019-02-26T05:59:45.459Z,90
2019-02-26T06:00:18.004Z,97
2019-02-26T06:00:45.554Z,103
2019-02-26T06:01:16.682Z,110
2019-02-26T06:01:46.525Z,117
2019-02-26T06:02:16.631Z,127
2019-02-26T06:02:47.822Z,133
2019-02-26T06:03:18.312Z,143
2019-02-26T06:03:46.669Z,150
2019-02-26T06:04:18.307Z,160
2019-02-26T06:04:46.682Z,170
2019-02-26T06:05:18.218Z,180
2019-02-26T06:05:46.353Z,190
2019-02-26T06:06:15.793Z,200
2019-02-26T06:06:45.982Z,213
2019-02-26T06:07:19.159Z,220
2019-02-26T06:07:45.983Z,233
2019-02-26T06:08:15.917Z,243
2019-02-26T06:08:45.974Z,257
2019-02-26T06:09:16.030Z,273
2019-02-26T06:09:48.088Z,287
2019-02-26T06:10:16.103Z,300
2019-02-26T06:10:46.097Z,317
2019-02-26T06:11:17.028Z,333
2019-02-26T06:11:49.457Z,350
2019-02-26T06:12:16.230Z,367
2019-02-26T06:12:46.651Z,380
2019-02-26T06:13:16.259Z,397
2019-02-26T06:13:46.311Z,413
2019-02-26T06:14:16.360Z,427
2019-02-26T06:14:46.366Z,447
2019-02-26T06:15:16.380Z,463
2019-02-26T06:15:46.439Z,483
2019-02-26T06:16:16.425Z,503
2019-02-26T06:16:48.662Z,527
2019-02-26T06:17:17.779Z,547
2019-02-26T06:17:48.198Z,570
2019-02-26T06:18:16.600Z,593
2019-02-26T06:18:48.501Z,617
2019-02-26T06:19:18.214Z,640
2019-02-26T06:19:46.713Z,663
2019-02-26T06:20:16.680Z,690
2019-02-26T06:20:48.475Z,720
2019-02-26T06:21:18.474Z,747
2019-02-26T06:21:49.142Z,777
2019-02-26T06:22:18.056Z,807
2019-02-26T06:22:46.856Z,837
2019-02-26T06:23:16.886Z,863
2019-02-26T06:23:46.881Z,897
2019-02-26T06:24:20.191Z,933
2019-02-26T06:24:46.961Z,970
2019-02-26T06:25:20.048Z,1010
2019-02-26T06:25:47.039Z,1050
2019-02-26T06:26:17.841Z,1090
2019-02-26T06:26:47.089Z,1137
2019-02-26T06:27:19.548Z,1183
2019-02-26T06:27:47.149Z,1230
2019-02-26T06:28:18.401Z,1280
2019-02-26T06:28:48.404Z,1327
2019-02-26T06:29:19.966Z,1377
2019-02-26T06:29:47.278Z,1427
2019-02-26T06:30:17.302Z,1477
2019-02-26T06:30:47.337Z,1527
2019-02-26T06:31:19.365Z,1580
2019-02-26T06:31:49.238Z,1637
2019-02-26T06:32:17.416Z,1697
2019-02-26T06:32:47.487Z,1753
2019-02-26T06:33:17.516Z,1817
2019-02-26T06:33:47.723Z,1877
2019-02-26T06:34:21.196Z,1940
2019-02-26T06:34:47.628Z,2007
2019-02-26T06:35:19.240Z,2080
2019-02-26T06:35:47.709Z,2147
2019-02-26T06:36:18.439Z,2220
2019-02-26T06:36:48.855Z,2287
2019-02-26T06:37:17.733Z,2347
2019-02-26T06:37:47.758Z,2410
2019-02-26T06:38:17.778Z,2470
2019-02-26T06:38:49.585Z,2537
2019-02-26T06:39:20.189Z,2600
2019-02-26T06:39:50.519Z,2667
2019-02-26T06:40:17.906Z,2730
2019-02-26T06:40:49.003Z,2787
2019-02-26T06:41:17.986Z,2847
2019-02-26T06:41:49.082Z,2903
2019-02-26T06:42:18.008Z,2960
2019-02-26T06:42:48.094Z,3013
2019-02-26T06:43:18.113Z,3067
2019-02-26T06:43:50.266Z,3123
2019-02-26T06:44:18.133Z,3173
2019-02-26T06:44:49.367Z,3227
2019-02-26T06:45:18.232Z,3283
2019-02-26T06:45:48.240Z,3340
2019-02-26T06:46:18.302Z,3393
2019-02-26T06:46:48.298Z,3447
2019-02-26T06:47:18.354Z,3513
2019-02-26T06:47:51.191Z,3580
2019-02-26T06:48:20.218Z,3647
2019-02-26T06:48:48.451Z,3717
2019-02-26T06:49:20.553Z,3793
2019-02-26T06:49:50.258Z,3867
2019-02-26T06:50:19.034Z,3940
2019-02-26T06:50:48.548Z,4023
2019-02-26T06:51:19.474Z,4103
2019-02-26T06:51:49.797Z,4180
2019-02-26T06:52:18.625Z,4260
2019-02-26T06:52:50.533Z,4330
2019-02-26T06:53:21.426Z,4393
2019-02-26T06:53:51.708Z,4453
2019-02-26T06:54:19.544Z,4503
2019-02-26T06:54:54.244Z,4557
2019-02-26T06:55:18.824Z,4600
2019-02-26T06:55:48.875Z,4637
2019-02-26T06:56:18.877Z,4657
2019-02-26T06:56:50.359Z,4687
2019-02-26T06:57:18.922Z,4720
2019-02-26T06:57:50.567Z,4753
2019-02-26T06:58:18.998Z,4793
2019-02-26T06:58:49.104Z,4843
2019-02-26T06:59:19.050Z,4913
2019-02-26T06:59:50.886Z,4963
2019-02-26T07:00:21.556Z,4990
2019-02-26T07:00:52.655Z,5023
2019-02-26T07:01:19.226Z,5067
2019-02-26T07:01:49.227Z,5120
2019-02-26T07:02:19.266Z,5177
2019-02-26T07:02:49.290Z,5233
2019-02-26T07:03:19.349Z,5290
2019-02-26T07:03:49.419Z,5343
2019-02-26T07:04:19.352Z,5403
2019-02-26T07:04:49.422Z,5460
2019-02-26T07:05:19.465Z,5500
2019-02-26T07:05:49.517Z,5523
2019-02-26T07:06:22.759Z,5547
2019-02-26T07:06:49.536Z,5580
2019-02-26T07:07:19.576Z,5610
2019-02-26T07:07:49.616Z,5643
2019-02-26T07:08:21.740Z,5670
2019-02-26T07:08:51.079Z,5697
2019-02-26T07:09:20.472Z,5733
2019-02-26T07:09:49.785Z,5760
2019-02-26T07:10:24.122Z,5790
2019-02-26T07:10:49.812Z,5813
2019-02-26T07:11:19.811Z,5840
2019-02-26T07:11:49.927Z,5870
2019-02-26T07:12:21.691Z,5897
2019-02-26T07:12:50.573Z,5923
2019-02-26T07:13:19.952Z,5957
2019-02-26T07:13:50.046Z,5973
2019-02-26T07:14:20.499Z,6000
2019-02-26T07:14:51.185Z,6007
2019-02-26T07:15:20.079Z,5980
2019-02-26T07:15:50.082Z,5930
2019-02-26T07:16:20.609Z,5857
2019-02-26T07:16:50.293Z,5780
2019-02-26T07:17:20.206Z,5833
2019-02-26T07:17:50.200Z,5937
2019-02-26T07:18:20.245Z,5953
2019-02-26T07:18:50.605Z,6000
2019-02-26T07:19:20.413Z,6167
2019-02-26T07:19:51.144Z,6327
2019-02-26T07:20:20.395Z,6393
2019-02-26T07:20:52.461Z,6423
2019-02-26T07:21:20.466Z,6447
2019-02-26T07:21:52.639Z,6470
2019-02-26T07:22:20.485Z,6490
2019-02-26T07:22:51.602Z,6530
2019-02-26T07:23:20.604Z,6567
2019-02-26T07:23:51.526Z,6587
2019-02-26T07:24:22.482Z,6620
2019-02-26T07:24:51.474Z,6643
2019-02-26T07:25:20.647Z,6683
2019-02-26T07:25:50.715Z,6737
2019-02-26T07:26:21.362Z,6787
2019-02-26T07:26:50.755Z,6827
2019-02-26T07:27:20.777Z,6857
2019-02-26T07:27:51.692Z,6873
2019-02-26T07:28:22.320Z,6910
2019-02-26T07:28:51.125Z,6947
2019-02-26T07:29:20.926Z,6950
2019-02-26T07:29:52.354Z,6970
2019-02-26T07:30:20.976Z,7040
2019-02-26T07:30:51.001Z,7073
2019-02-26T07:31:21.008Z,7100
2019-02-26T07:31:51.799Z,7120
2019-02-26T07:32:22.112Z,7087
2019-02-26T07:32:51.127Z,7070
2019-02-26T07:33:21.145Z,7133
2019-02-26T07:33:52.915Z,7220
2019-02-26T07:34:22.772Z,7257
2019-02-26T07:34:52.101Z,7277
2019-02-26T07:35:21.325Z,7293
2019-02-26T07:35:52.266Z,7337
2019-02-26T07:36:23.185Z,7387
2019-02-26T07:36:52.510Z,7543
2019-02-26T07:37:21.462Z,8147
2019-02-26T07:37:52.283Z,9120
2019-02-26T07:38:22.979Z,9853
2019-02-26T07:38:53.565Z,9967
2019-02-26T07:39:22.751Z,9760
2019-02-26T07:39:53.085Z,9800
2019-02-26T07:40:21.584Z,10210
2019-02-26T07:40:51.649Z,10663
2019-02-26T07:41:23.143Z,10710
2019-02-26T07:41:53.777Z,10887
2019-02-26T07:42:21.723Z,10943
2019-02-26T07:42:51.747Z,10617
2019-02-26T07:43:22.590Z,9840
2019-02-26T07:43:52.583Z,10427
2019-02-26T07:44:23.541Z,10730
2019-02-26T07:44:51.930Z,10397
2019-02-26T07:45:22.317Z,10060
2019-02-26T07:45:51.920Z,10013
2019-02-26T07:46:21.935Z,10410
2019-02-26T07:46:51.981Z,10383
2019-02-26T07:47:22.131Z,9970
2019-02-26T07:47:53.945Z,10103
2019-02-26T07:48:23.715Z,10350
2019-02-26T07:48:53.865Z,10683
2019-02-26T07:49:22.116Z,10730
2019-02-26T07:49:52.193Z,10797
2019-02-26T07:50:22.206Z,10440
2019-02-26T07:50:52.257Z,10170
2019-02-26T07:51:22.291Z,10193
2019-02-26T07:51:52.357Z,10447
2019-02-26T07:52:24.130Z,10860
2019-02-26T07:52:54.116Z,10413
2019-02-26T07:53:24.535Z,10133
2019-02-26T07:53:53.570Z,9833
2019-02-26T07:54:22.505Z,9770
2019-02-26T07:54:52.535Z,9983
2019-02-26T07:55:22.525Z,10010
2019-02-26T07:55:52.598Z,10070
2019-02-26T07:56:23.054Z,9957
2019-02-26T07:56:54.684Z,10120
2019-02-26T07:57:22.917Z,11100
2019-02-26T07:57:53.158Z,11980
2019-02-26T07:58:22.691Z,11947
2019-02-26T07:58:56.901Z,11670
2019-02-26T07:59:27.543Z,12257
2019-02-26T07:59:52.837Z,13280
2019-02-26T08:00:22.796Z,13667
2019-02-26T08:00:52.858Z,13920
2019-02-26T08:01:22.849Z,14400
2019-02-26T08:01:52.895Z,14357
2019-02-26T08:02:22.928Z,13803
2019-02-26T08:02:54.682Z,13333
2019-02-26T08:03:24.251Z,13203
2019-02-26T08:03:53.298Z,13023
2019-02-26T08:04:23.066Z,13100
2019-02-26T08:04:53.147Z,13560
2019-02-26T08:05:24.221Z,13637
2019-02-26T08:05:53.147Z,13687
2019-02-26T08:06:23.179Z,12860
2019-02-26T08:06:54.770Z,13720
2019-02-26T08:07:24.317Z,13307
2019-02-26T08:07:54.362Z,13477
2019-02-26T08:08:23.310Z,13393
2019-02-26T08:08:53.371Z,12617
2019-02-26T08:09:23.621Z,12227
2019-02-26T08:09:53.462Z,11953
2019-02-26T08:10:23.432Z,12387
2019-02-26T08:10:53.499Z,12563
2019-02-26T08:11:23.512Z,12547
2019-02-26T08:11:53.526Z,12610
2019-02-26T08:12:23.529Z,12113
2019-02-26T08:12:53.612Z,11577
2019-02-26T08:13:25.818Z,11503
2019-02-26T08:13:54.305Z,12070
2019-02-26T08:14:25.136Z,13067
2019-02-26T08:14:53.955Z,13407
2019-02-26T08:15:23.768Z,13727
2019-02-26T08:15:55.065Z,12660
2019-02-26T08:16:25.324Z,12157
2019-02-26T08:16:56.058Z,12673
2019-02-26T08:17:23.843Z,13877
2019-02-26T08:17:55.826Z,15000
2019-02-26T08:18:23.906Z,15790
2019-02-26T08:18:54.633Z,15200
2019-02-26T08:19:29.383Z,14413
2019-02-26T08:19:54.061Z,13310
2019-02-26T08:20:24.036Z,12417
2019-02-26T08:20:55.321Z,12817
2019-02-26T08:21:25.138Z,12887
2019-02-26T08:21:54.898Z,12383
2019-02-26T08:22:24.748Z,12250
2019-02-26T08:22:55.995Z,11853
2019-02-26T08:23:25.822Z,11357
2019-02-26T08:23:54.290Z,10817
2019-02-26T08:24:24.655Z,10263
2019-02-26T08:24:55.404Z,9980
2019-02-26T08:25:24.396Z,10423
2019-02-26T08:25:55.377Z,12143
2019-02-26T08:26:26.205Z,13053
2019-02-26T08:26:54.506Z,13690
2019-02-26T08:27:26.139Z,13373
2019-02-26T08:27:56.304Z,12503
2019-02-26T08:28:24.908Z,12373
2019-02-26T08:28:54.560Z,13177
2019-02-26T08:29:26.456Z,13877
2019-02-26T08:29:56.455Z,14880
2019-02-26T08:30:26.043Z,16517
2019-02-26T08:30:55.273Z,16317
2019-02-26T08:31:25.563Z,15573
2019-02-26T08:31:56.720Z,16587
2019-02-26T08:32:26.116Z,18010
2019-02-26T08:32:56.262Z,18973
2019-02-26T08:33:24.825Z,19523
2019-02-26T08:33:54.885Z,20303
2019-02-26T08:34:24.898Z,21803
2019-02-26T08:34:56.753Z,21987
2019-02-26T08:35:24.987Z,20077
2019-02-26T08:35:56.045Z,17633
2019-02-26T08:36:25.013Z,15480
2019-02-26T08:36:55.094Z,15047
2019-02-26T08:37:25.076Z,15710
2019-02-26T08:37:55.143Z,17657
2019-02-26T08:38:29.209Z,20237
2019-02-26T08:38:57.021Z,20093
2019-02-26T08:39:25.278Z,17530
2019-02-26T08:39:57.659Z,14320
2019-02-26T08:40:25.316Z,11920
2019-02-26T08:40:55.332Z,11377
2019-02-26T08:41:25.360Z,11587
2019-02-26T08:41:55.380Z,11023
2019-02-26T08:42:25.406Z,10420
2019-02-26T08:42:55.470Z,10397
2019-02-26T08:43:25.479Z,10483
2019-02-26T08:43:56.386Z,10423
2019-02-26T08:44:25.533Z,10693
2019-02-26T08:44:55.920Z,10707
2019-02-26T08:45:25.882Z,10293
2019-02-26T08:45:55.658Z,10360
2019-02-26T08:46:25.650Z,10230
2019-02-26T08:46:55.704Z,11197
2019-02-26T08:47:25.734Z,12963
2019-02-26T08:47:55.737Z,14477
2019-02-26T08:48:26.974Z,15790
2019-02-26T08:48:55.797Z,18087
2019-02-26T08:49:25.803Z,18813
2019-02-26T08:49:55.864Z,18537
2019-02-26T08:50:28.468Z,18857
2019-02-26T08:50:56.113Z,19843
2019-02-26T08:51:25.928Z,20803
2019-02-26T08:51:55.990Z,22253
2019-02-26T08:52:27.354Z,23583
2019-02-26T08:52:58.417Z,24593
2019-02-26T08:53:26.574Z,23893
2019-02-26T08:53:57.215Z,21067
2019-02-26T08:54:27.961Z,22260
2019-02-26T08:54:56.405Z,25400
2019-02-26T08:55:26.178Z,23923
2019-02-26T08:55:58.681Z,23387
2019-02-26T08:56:28.156Z,24383
2019-02-26T08:56:56.346Z,25573
2019-02-26T08:57:26.306Z,25947
2019-02-26T08:57:56.571Z,25887
2019-02-26T08:58:28.207Z,25860
2019-02-26T08:58:58.368Z,25373
2019-02-26T08:59:26.486Z,24250
2019-02-26T08:59:56.505Z,23870
2019-02-26T09:00:26.533Z,23997
2019-02-26T09:00:56.602Z,24543
2019-02-26T09:01:26.590Z,25343
2019-02-26T09:01:56.617Z,25817
2019-02-26T09:02:26.654Z,26300
2019-02-26T09:02:56.859Z,25250
2019-02-26T09:03:26.710Z,25693
2019-02-26T09:03:58.395Z,26023
2019-02-26T09:04:26.740Z,25880
2019-02-26T09:04:56.791Z,26447
2019-02-26T09:05:29.043Z,26740
2019-02-26T09:06:07.810Z,27730
2019-02-26T09:06:26.985Z,28127
2019-02-26T09:06:57.625Z,28807
2019-02-26T09:07:26.922Z,28410
2019-02-26T09:07:57.041Z,28243
2019-02-26T09:08:26.974Z,27600
2019-02-26T09:08:59.291Z,25553
2019-02-26T09:09:27.706Z,27303
2019-02-26T09:09:57.631Z,26717
2019-02-26T09:10:27.099Z,26217
2019-02-26T09:10:57.209Z,26897
2019-02-26T09:11:28.664Z,27423
2019-02-26T09:11:58.682Z,27460
2019-02-26T09:12:27.367Z,27347
2019-02-26T09:12:57.281Z,26830
2019-02-26T09:13:27.282Z,27417
2019-02-26T09:13:59.378Z,27293
2019-02-26T09:14:27.724Z,27167
2019-02-26T09:14:57.395Z,27387
2019-02-26T09:15:28.942Z,27100
2019-02-26T09:15:58.616Z,26510
2019-02-26T09:16:28.217Z,26587
2019-02-26T09:16:59.470Z,26520
2019-02-26T09:17:29.808Z,27100
2019-02-26T09:17:57.615Z,27507
2019-02-26T09:18:28.156Z,26567
2019-02-26T09:18:57.651Z,26663
2019-02-26T09:19:29.759Z,26850
2019-02-26T09:20:06.891Z,26753
2019-02-26T09:20:27.822Z,26290
2019-02-26T09:20:57.829Z,25723
2019-02-26T09:21:27.783Z,26360
2019-02-26T09:21:57.846Z,27013
2019-02-26T09:22:28.439Z,27903
2019-02-26T09:22:59.408Z,27523
2019-02-26T09:23:28.825Z,26470
2019-02-26T09:23:59.560Z,26383
2019-02-26T09:24:27.995Z,26680
2019-02-26T09:24:59.803Z,24640
2019-02-26T09:25:28.646Z,27310
2019-02-26T09:26:00.181Z,26837
2019-02-26T09:26:28.084Z,26457
2019-02-26T09:26:59.912Z,27370
2019-02-26T09:27:29.459Z,27997
2019-02-26T09:27:58.243Z,28777
2019-02-26T09:28:29.431Z,28877
2019-02-26T09:28:58.319Z,29380
2019-02-26T09:29:28.337Z,29990
2019-02-26T09:29:58.348Z,28060
2019-02-26T09:30:30.896Z,29077
2019-02-26T09:31:00.930Z,28623
2019-02-26T09:31:28.447Z,29297
2019-02-26T09:31:58.496Z,30613
2019-02-26T09:32:28.548Z,30513
2019-02-26T09:33:00.598Z,29833
2019-02-26T09:33:32.556Z,30050
2019-02-26T09:33:58.623Z,28923
2019-02-26T09:34:31.295Z,29453
2019-02-26T09:34:59.147Z,30093
2019-02-26T09:35:30.616Z,30893
2019-02-26T09:35:58.746Z,30360
2019-02-26T09:36:29.299Z,31150
2019-02-26T09:37:01.110Z,31933
2019-02-26T09:37:28.765Z,32217
2019-02-26T09:38:00.871Z,32653
2019-02-26T09:38:28.832Z,32787
2019-02-26T09:38:58.872Z,32750
2019-02-26T09:39:29.407Z,33160
2019-02-26T09:39:59.206Z,33220
2019-02-26T09:40:30.016Z,32753
2019-02-26T09:40:59.001Z,32817
2019-02-26T09:41:29.018Z,33313
2019-02-26T09:41:59.848Z,33513
2019-02-26T09:42:30.113Z,33687
2019-02-26T09:43:00.052Z,33857
2019-02-26T09:43:29.150Z,34180
2019-02-26T09:44:00.232Z,34200
2019-02-26T09:44:30.998Z,33583
2019-02-26T09:45:00.109Z,33723
2019-02-26T09:45:30.200Z,34170
2019-02-26T09:45:59.330Z,34353
2019-02-26T09:46:31.180Z,34587
2019-02-26T09:47:00.508Z,33613
2019-02-26T09:47:31.383Z,32927
2019-02-26T09:48:01.063Z,34273
2019-02-26T09:48:29.469Z,34020
2019-02-26T09:49:00.760Z,33983
2019-02-26T09:49:31.319Z,33067
2019-02-26T09:49:59.574Z,33803
2019-02-26T09:50:29.623Z,34260
2019-02-26T09:50:59.693Z,34163
2019-02-26T09:51:30.593Z,34603
2019-02-26T09:52:01.364Z,35250
2019-02-26T09:52:30.673Z,35110
2019-02-26T09:52:59.750Z,34770
2019-02-26T09:53:29.746Z,35237
2019-02-26T09:53:59.820Z,34907
2019-02-26T09:54:29.877Z,35417
2019-02-26T09:54:59.865Z,35710
2019-02-26T09:55:29.883Z,35730
2019-02-26T09:55:59.920Z,35837
2019-02-26T09:56:29.947Z,35933
2019-02-26T09:56:59.986Z,36200
2019-02-26T09:57:30.056Z,36550
2019-02-26T09:58:00.066Z,36777
2019-02-26T09:58:30.054Z,36607
2019-02-26T09:59:02.224Z,35593
2019-02-26T09:59:31.351Z,34640
2019-02-26T10:00:02.437Z,34770
2019-02-26T10:00:30.192Z,35913
2019-02-26T10:01:01.073Z,36927
2019-02-26T10:01:31.227Z,37397
2019-02-26T10:02:01.669Z,37523
2019-02-26T10:02:30.392Z,37490
2019-02-26T10:03:02.946Z,37540
2019-02-26T10:03:33.090Z,37607
2019-02-26T10:04:02.768Z,37547
2019-02-26T10:04:30.470Z,37040
2019-02-26T10:05:00.980Z,36590
2019-02-26T10:05:30.541Z,36310
2019-02-26T10:06:00.826Z,35490
2019-02-26T10:06:30.590Z,35837
2019-02-26T10:07:02.311Z,35260
2019-02-26T10:07:31.283Z,37203
2019-02-26T10:08:03.224Z,36610
2019-02-26T10:08:30.743Z,34737
2019-02-26T10:09:01.366Z,35567
2019-02-26T10:09:32.752Z,37133
2019-02-26T10:10:03.926Z,38187
2019-02-26T10:10:33.176Z,31717
2019-02-26T10:11:02.644Z,31423
2019-02-26T10:11:30.855Z,34167
2019-02-26T10:12:02.762Z,34377
2019-02-26T10:12:32.148Z,34177
2019-02-26T10:13:02.649Z,34127
2019-02-26T10:13:30.987Z,34963
2019-02-26T10:14:03.250Z,35847
2019-02-26T10:14:33.005Z,36030
2019-02-26T10:15:02.499Z,36840
2019-02-26T10:15:32.236Z,36630
2019-02-26T10:16:03.435Z,36780
2019-02-26T10:16:32.950Z,37530
2019-02-26T10:17:01.282Z,37540
2019-02-26T10:17:33.239Z,37440
2019-02-26T10:18:03.898Z,36320
2019-02-26T10:18:32.921Z,33180
2019-02-26T10:19:01.556Z,32133
2019-02-26T10:19:33.210Z,35527
2019-02-26T10:20:03.863Z,36217
2019-02-26T10:20:31.746Z,36667
2019-02-26T10:21:01.669Z,34057
2019-02-26T10:21:32.862Z,31543
2019-02-26T10:22:03.490Z,33023
2019-02-26T10:22:33.134Z,37207
2019-02-26T10:23:04.056Z,37390
2019-02-26T10:23:32.958Z,36660
2019-02-26T10:24:01.917Z,37553
2019-02-26T10:24:32.812Z,38237
2019-02-26T10:25:01.780Z,37670
2019-02-26T10:25:34.418Z,36330
2019-02-26T10:26:03.278Z,34990
2019-02-26T10:26:33.411Z,35580
2019-02-26T10:27:03.617Z,33900
2019-02-26T10:27:34.057Z,33357
2019-02-26T10:28:03.872Z,37457
2019-02-26T10:28:35.124Z,36353
2019-02-26T10:29:04.287Z,35727
2019-02-26T10:29:32.445Z,34447
2019-02-26T10:30:04.456Z,33927
2019-02-26T10:30:33.369Z,33087
2019-02-26T10:31:04.773Z,34187
2019-02-26T10:31:32.180Z,33993
2019-02-26T10:32:02.185Z,35587
2019-02-26T10:32:32.860Z,35893
2019-02-26T10:33:02.933Z,37140
2019-02-26T10:33:33.707Z,37920
2019-02-26T10:34:02.982Z,37537
2019-02-26T10:34:32.277Z,37987
2019-02-26T10:35:02.345Z,37820
2019-02-26T10:35:33.439Z,38120
2019-02-26T10:36:03.346Z,37780
2019-02-26T10:36:34.757Z,37890
2019-02-26T10:37:02.470Z,38010
2019-02-26T10:37:34.135Z,38203
2019-02-26T10:38:03.468Z,38333
2019-02-26T10:38:33.617Z,38280
2019-02-26T10:39:02.846Z,37960
2019-02-26T10:39:32.618Z,37980
2019-02-26T10:40:02.919Z,38287
2019-02-26T10:40:35.479Z,38650
2019-02-26T10:41:04.921Z,38573
2019-02-26T10:41:34.747Z,38677
2019-02-26T10:42:02.801Z,38840
2019-02-26T10:42:39.565Z,38773
2019-02-26T10:43:02.821Z,38793
2019-02-26T10:43:32.910Z,38493
2019-02-26T10:44:02.888Z,38400
2019-02-26T10:44:32.910Z,38423
2019-02-26T10:45:02.944Z,39060
2019-02-26T10:45:35.952Z,38980
2019-02-26T10:46:03.002Z,38630
2019-02-26T10:46:34.591Z,37103
2019-02-26T10:47:03.810Z,37430
2019-02-26T10:47:34.630Z,36907
2019-02-26T10:48:03.162Z,37160
2019-02-26T10:48:33.213Z,39440
2019-02-26T10:49:03.190Z,40227
2019-02-26T10:49:33.207Z,39177
2019-02-26T10:50:03.787Z,39753
2019-02-26T10:50:33.286Z,40277
2019-02-26T10:51:05.960Z,40553
2019-02-26T10:51:33.403Z,40467
2019-02-26T10:52:03.601Z,40613
2019-02-26T10:52:33.448Z,40737
2019-02-26T10:53:07.758Z,40733
2019-02-26T10:53:33.537Z,40497
2019-02-26T10:54:05.654Z,39860
2019-02-26T10:54:37.402Z,40613
2019-02-26T10:55:03.585Z,40690
2019-02-26T10:55:38.545Z,40680
2019-02-26T10:56:03.628Z,40777
2019-02-26T10:56:38.574Z,41240
2019-02-26T10:57:07.408Z,41087
2019-02-26T10:57:35.744Z,41177
2019-02-26T10:58:07.818Z,40940
2019-02-26T10:58:34.014Z,41067
2019-02-26T10:59:06.569Z,40870
2019-02-26T10:59:33.830Z,41153
2019-02-26T11:00:06.234Z,40793
2019-02-26T11:00:35.204Z,40413
2019-02-26T11:01:05.069Z,40817
2019-02-26T11:01:34.031Z,40780
2019-02-26T11:02:03.989Z,41633
2019-02-26T11:02:34.018Z,42360
2019-02-26T11:03:06.421Z,42287
2019-02-26T11:03:36.007Z,42310
2019-02-26T11:04:04.558Z,41893
2019-02-26T11:04:34.614Z,41913
2019-02-26T11:05:04.183Z,41630
2019-02-26T11:05:34.307Z,41890
2019-02-26T11:06:05.175Z,41830
2019-02-26T11:06:36.575Z,42097
2019-02-26T11:07:05.592Z,41883
2019-02-26T11:07:34.507Z,42167
2019-02-26T11:08:08.401Z,42093
2019-02-26T11:08:35.058Z,41977
2019-02-26T11:09:04.456Z,41680
2019-02-26T11:09:34.485Z,42090
2019-02-26T11:10:04.539Z,41683
2019-02-26T11:10:34.575Z,41077
2019-02-26T11:11:07.188Z,40793
2019-02-26T11:11:35.561Z,41150
2019-02-26T11:12:06.318Z,42387
2019-02-26T11:12:34.639Z,42040
2019-02-26T11:13:04.744Z,42103
2019-02-26T11:13:34.685Z,41603
2019-02-26T11:14:05.641Z,41677
2019-02-26T11:14:36.206Z,41587
2019-02-26T11:15:06.713Z,40757
2019-02-26T11:15:35.962Z,42140
2019-02-26T11:16:04.853Z,42670
2019-02-26T11:16:35.724Z,42710
2019-02-26T11:17:04.912Z,43437
2019-02-26T11:17:34.930Z,42890
2019-02-26T11:18:05.907Z,42917
2019-02-26T11:18:36.690Z,43093
2019-02-26T11:19:06.968Z,43217
2019-02-26T11:19:36.518Z,43513
2019-02-26T11:20:07.541Z,42003
2019-02-26T11:20:35.145Z,40327
2019-02-26T11:21:05.159Z,42397
2019-02-26T11:21:35.195Z,43250
2019-02-26T11:22:05.226Z,42983
2019-02-26T11:22:35.245Z,43247
2019-02-26T11:23:06.093Z,42883
2019-02-26T11:23:36.305Z,42723
2019-02-26T11:24:06.078Z,41020
2019-02-26T11:24:36.141Z,42843
2019-02-26T11:25:05.450Z,42967
2019-02-26T11:25:36.904Z,43100
2019-02-26T11:26:06.589Z,43020
2019-02-26T11:26:37.715Z,42727
2019-02-26T11:27:05.592Z,42320
2019-02-26T11:27:37.416Z,41337
2019-02-26T11:28:07.350Z,41207
2019-02-26T11:28:37.834Z,41930
2019-02-26T11:29:05.724Z,41427
2019-02-26T11:29:37.781Z,42377
2019-02-26T11:30:05.732Z,42407
2019-02-26T11:30:35.737Z,42347
2019-02-26T11:31:05.778Z,42083
2019-02-26T11:31:36.448Z,42013
2019-02-26T11:32:07.683Z,42583
2019-02-26T11:32:37.772Z,42647
2019-02-26T11:33:08.128Z,42560
2019-02-26T11:33:35.922Z,42727
2019-02-26T11:34:09.284Z,42480
2019-02-26T11:34:38.108Z,42420
2019-02-26T11:35:06.029Z,42990
2019-02-26T11:35:36.068Z,42587
2019-02-26T11:36:08.078Z,43153
2019-02-26T11:36:38.034Z,43090
2019-02-26T11:37:08.757Z,41813
2019-02-26T11:37:36.203Z,37583
2019-02-26T11:38:06.261Z,36063
2019-02-26T11:38:37.439Z,35667
2019-02-26T11:39:06.795Z,34850
2019-02-26T11:39:36.326Z,30443
2019-02-26T11:40:06.382Z,31160
2019-02-26T11:40:36.430Z,29633
2019-02-26T11:41:06.415Z,40903
2019-02-26T11:41:36.442Z,41593
2019-02-26T11:42:06.542Z,40117
2019-02-26T11:42:36.530Z,40700
2019-02-26T11:43:11.389Z,40377
2019-02-26T11:43:36.601Z,40413
2019-02-26T11:44:08.050Z,40070
2019-02-26T11:44:36.622Z,40570
2019-02-26T11:45:07.339Z,40873
2019-02-26T11:45:37.075Z,40773
2019-02-26T11:46:08.669Z,40370
2019-02-26T11:46:36.742Z,40263
2019-02-26T11:47:08.503Z,40373
2019-02-26T11:47:38.687Z,40173
2019-02-26T11:48:08.709Z,40160
2019-02-26T11:48:36.885Z,40660
2019-02-26T11:49:06.903Z,40697
2019-02-26T11:49:39.018Z,40757
2019-02-26T11:50:08.914Z,40327
2019-02-26T11:50:36.981Z,40933
2019-02-26T11:51:07.039Z,40793
2019-02-26T11:51:37.831Z,40557
2019-02-26T11:52:07.104Z,40747
2019-02-26T11:52:37.149Z,40620
2019-02-26T11:53:09.280Z,40553
2019-02-26T11:53:37.155Z,40480
2019-02-26T11:54:08.168Z,40930
2019-02-26T11:54:39.360Z,40693
2019-02-26T11:55:09.237Z,40700
2019-02-26T11:55:37.524Z,40607
2019-02-26T11:56:07.354Z,40580
2019-02-26T11:56:41.923Z,41227
2019-02-26T11:57:10.172Z,41217
2019-02-26T11:57:39.712Z,40623
2019-02-26T11:58:09.926Z,40957
2019-02-26T11:58:37.479Z,38733
2019-02-26T11:59:09.040Z,40323
2019-02-26T11:59:38.590Z,40697
2019-02-26T12:00:09.139Z,40553
2019-02-26T12:00:39.253Z,36503
2019-02-26T12:01:07.637Z,34967
2019-02-26T12:01:39.500Z,33157
2019-02-26T12:02:07.789Z,29637
2019-02-26T12:02:38.775Z,34297
2019-02-26T12:03:07.753Z,36067
2019-02-26T12:03:38.844Z,40183
2019-02-26T12:04:08.416Z,41087
2019-02-26T12:04:37.860Z,41273
2019-02-26T12:05:08.038Z,40770
2019-02-26T12:05:39.460Z,40643
2019-02-26T12:06:07.951Z,40407
2019-02-26T12:06:37.961Z,40603
2019-02-26T12:07:09.744Z,40690
2019-02-26T12:07:38.025Z,40560
2019-02-26T12:08:08.089Z,40740
2019-02-26T12:08:40.493Z,40593
2019-02-26T12:09:10.710Z,40677
2019-02-26T12:09:40.631Z,40530
2019-02-26T12:10:10.227Z,40500
2019-02-26T12:10:40.305Z,40590
2019-02-26T12:11:12.666Z,40603
2019-02-26T12:11:38.972Z,40477
2019-02-26T12:12:11.454Z,40683
2019-02-26T12:12:39.037Z,40567
2019-02-26T12:13:09.111Z,40547
2019-02-26T12:13:39.489Z,40560
2019-02-26T12:14:10.829Z,40150
2019-02-26T12:14:41.003Z,40163
2019-02-26T12:15:09.961Z,40140
2019-02-26T12:15:42.564Z,40340
2019-02-26T12:16:09.255Z,40157
2019-02-26T12:16:39.336Z,40167
2019-02-26T12:17:09.347Z,40320
2019-02-26T12:17:39.387Z,40240
2019-02-26T12:18:41.020Z,40417
2019-02-26T12:19:10.717Z,40783
2019-02-26T12:19:39.455Z,37567
2019-02-26T12:20:09.681Z,34603
2019-02-26T12:20:40.876Z,35390
2019-02-26T12:21:10.415Z,39763
2019-02-26T12:21:39.599Z,40317